Time;durP1;ratioP1;P1;durP2;ratioP2;P2;SDS_P1;SDS_P2;PMS_P1;PMS_P2;Temp;Humidity;BMP_temperature;BMP_pressure;BME280_temperature;BME280_humidity;BME280_pressure;Samples;Min_cycle;Max_cycle;Signal;HPM_P1;HPM_P2
2023/04/21 00:00:09;;;;;;;17.83;15.83;;;;;;;7.11;92.15;98358.13;5006649;27;103293;-56
2023/04/21 00:02:40;;;;;;;14.33;12.83;;;;;;;7.36;92.01;98360.84;5002125;27;103764;-63
2023/04/21 00:05:11;;;;;;;14.80;12.60;;;;;;;7.48;90.86;98346.94;5006776;27;102601;-63
2023/04/21 00:07:40;;;;;;;15.93;13.37;;;;;;;7.41;89.92;98343.00;5009941;27;102978;-63
2023/04/21 00:10:09;;;;;;;13.23;11.83;;;;;;;7.48;89.53;98353.97;5004304;27;104396;-63
2023/04/21 00:12:38;;;;;;;15.50;13.90;;;;;;;7.45;89.68;98352.38;5010844;27;103104;-63
2023/04/21 00:15:08;;;;;;;21.87;15.87;;;;;;;6.82;89.96;98364.38;5004229;27;102699;-63
2023/04/21 00:17:36;;;;;;;19.03;17.03;;;;;;;6.31;92.13;98358.75;5009805;27;103003;-63
2023/04/21 00:20:07;;;;;;;15.23;13.50;;;;;;;6.70;92.80;98352.00;5014071;27;103405;-62
2023/04/21 00:22:36;;;;;;;17.43;15.53;;;;;;;6.70;92.19;98357.25;5008683;27;105971;-63
2023/04/21 00:25:05;;;;;;;17.93;16.03;;;;;;;6.73;91.69;98359.69;5010503;27;102681;-63
2023/04/21 00:27:33;;;;;;;16.40;14.70;;;;;;;6.80;92.13;98358.34;5009794;27;102647;-63
2023/04/21 00:30:02;;;;;;;18.17;16.13;;;;;;;6.58;92.52;98352.75;5009024;27;103288;-63
2023/04/21 00:32:32;;;;;;;18.70;16.70;;;;;;;6.69;93.86;98350.28;5014741;27;106277;-63
2023/04/21 00:35:00;;;;;;;18.10;15.37;;;;;;;6.72;93.95;98352.75;5007453;27;103524;-63
2023/04/21 00:37:29;;;;;;;17.40;14.80;;;;;;;6.74;94.12;98353.47;5009315;27;102762;-63
2023/04/21 00:39:58;;;;;;;17.50;15.70;;;;;;;6.74;93.86;98348.22;5010177;27;103318;-63
2023/04/21 00:42:27;;;;;;;17.40;15.57;;;;;;;6.47;94.26;98344.69;5014539;27;103321;-63
2023/04/21 00:44:55;;;;;;;17.93;15.53;;;;;;;6.63;94.54;98338.41;5005708;27;102712;-62
2023/04/21 00:47:24;;;;;;;17.77;15.87;;;;;;;6.66;94.22;98339.97;5016165;27;102936;-63
2023/04/21 00:49:54;;;;;;;18.13;16.20;;;;;;;6.65;94.53;98338.31;5007108;27;103517;-63
2023/04/21 00:52:22;;;;;;;16.27;14.67;;;;;;;6.53;95.15;98341.69;5004457;27;103290;-63
2023/04/21 00:54:50;;;;;;;17.80;16.00;;;;;;;6.58;95.25;98337.00;5009305;27;103137;-63
2023/04/21 00:57:19;;;;;;;18.00;15.67;;;;;;;6.45;95.51;98328.19;5004836;27;102728;-63
2023/04/21 00:59:48;;;;;;;17.37;15.50;;;;;;;6.29;95.91;98323.03;5010512;27;104808;-63
2023/04/21 01:02:18;;;;;;;16.53;14.73;;;;;;;6.51;96.06;98328.69;5009866;27;103446;-63
2023/04/21 01:04:48;;;;;;;15.63;14.00;;;;;;;6.52;95.48;98326.88;5004265;27;103074;-63
2023/04/21 01:07:18;;;;;;;14.30;12.80;;;;;;;6.88;94.51;98328.03;5014844;27;104087;-62
2023/04/21 01:09:46;;;;;;;18.07;15.57;;;;;;;6.73;93.72;98334.28;5004412;27;104604;-63
2023/04/21 01:12:15;;;;;;;15.63;13.73;;;;;;;6.60;92.93;98332.50;5007967;27;103361;-64
2023/04/21 01:14:43;;;;;;;13.87;12.47;;;;;;;6.77;93.06;98332.28;5004389;27;103251;-63
2023/04/21 01:17:12;;;;;;;13.87;12.30;;;;;;;6.83;92.82;98322.25;5005960;27;102711;-63
2023/04/21 01:19:42;;;;;;;16.40;13.67;;;;;;;6.35;92.72;98320.03;5010495;27;103388;-63
2023/04/21 01:22:15;;;;;;;16.50;13.73;;;;;;;6.03;94.90;98319.38;5001171;27;103128;-64
2023/04/21 01:24:45;;;;;;;16.33;14.60;;;;;;;6.26;94.79;98310.94;5011254;27;102565;-62
2023/04/21 01:27:17;;;;;;;14.20;12.70;;;;;;;6.36;94.66;98317.34;5006661;27;103255;-63
2023/04/21 01:29:48;;;;;;;16.83;14.60;;;;;;;6.26;94.62;98310.94;5011999;27;103197;-62
2023/04/21 01:32:21;;;;;;;17.30;15.50;;;;;;;6.19;94.71;98320.13;5008195;27;103254;-63
2023/04/21 01:34:54;;;;;;;14.53;13.03;;;;;;;6.22;94.69;98322.59;5004254;27;102626;-63
2023/04/21 01:37:26;;;;;;;13.53;12.13;;;;;;;6.51;93.77;98318.19;5003023;27;103061;-63
2023/04/21 01:39:57;;;;;;;17.30;14.90;;;;;;;6.14;93.25;98327.44;5007443;27;103525;-63
2023/04/21 01:42:29;;;;;;;14.40;12.73;;;;;;;6.14;95.10;98319.59;5009344;27;103137;-63
2023/04/21 01:44:58;;;;;;;13.43;12.03;;;;;;;6.32;94.21;98331.56;5010309;27;102704;-62
2023/04/21 01:47:26;;;;;;;12.93;11.00;;;;;;;6.54;93.64;98330.28;5004006;27;103354;-62
2023/04/21 01:49:55;;;;;;;18.43;15.50;;;;;;;5.91;94.50;98325.34;5007464;27;103353;-62
2023/04/21 01:52:25;;;;;;;21.50;15.37;;;;;;;5.93;94.41;98315.59;5003930;27;103094;-62
2023/04/21 01:54:54;;;;;;;13.17;11.70;;;;;;;6.30;94.27;98317.72;5012149;27;102774;-63
2023/04/21 01:57:22;;;;;;;13.17;11.00;;;;;;;6.54;93.57;98325.03;5010607;27;102678;-63
2023/04/21 01:59:51;;;;;;;16.40;13.67;;;;;;;6.57;92.27;98330.09;5014757;27;108627;-63
2023/04/21 02:02:19;;;;;;;18.20;15.37;;;;;;;6.43;90.62;98326.50;5006541;27;103315;-62
2023/04/21 02:04:48;;;;;;;16.00;13.67;;;;;;;6.30;90.02;98332.59;5007393;27;102574;-63
2023/04/21 02:07:16;;;;;;;15.30;13.70;;;;;;;6.35;89.80;98330.53;5016220;27;102759;-62
2023/04/21 02:09:45;;;;;;;15.27;13.50;;;;;;;6.32;89.36;98336.81;5016428;27;103941;-64
2023/04/21 02:12:15;;;;;;;15.90;14.13;;;;;;;6.16;88.93;98328.19;5003397;27;103268;-62
2023/04/21 02:14:42;;;;;;;14.73;12.87;;;;;;;5.89;89.90;98327.22;5016212;27;102603;-63
2023/04/21 02:17:10;;;;;;;17.50;14.47;;;;;;;5.61;91.88;98327.13;5010171;27;102732;-63
2023/04/21 02:19:38;;;;;;;14.80;13.27;;;;;;;5.89;93.22;98321.97;5008394;27;103422;-62
2023/04/21 02:22:07;;;;;;;12.43;11.13;;;;;;;6.21;92.37;98318.25;5014355;27;103125;-63
2023/04/21 02:24:35;;;;;;;11.57;10.37;;;;;;;6.33;91.22;98321.91;5016453;27;102759;-63
2023/04/21 02:27:05;;;;;;;11.40;10.27;;;;;;;6.41;90.40;98325.75;5019863;27;103848;-64
2023/04/21 02:29:33;;;;;;;13.37;11.03;;;;;;;6.45;89.73;98329.06;5006992;27;103281;-63
2023/04/21 02:32:01;;;;;;;14.27;12.37;;;;;;;6.28;88.58;98327.47;5010059;27;103137;-62
2023/04/21 02:34:44;;;;;;;17.67;14.13;;;;;;;5.75;87.79;98319.31;5006184;27;102660;-62
2023/04/21 02:37:12;;;;;;;16.33;14.60;;;;;;;5.46;90.06;98312.28;5006760;27;102760;-63
2023/04/21 02:39:42;;;;;;;12.47;11.13;;;;;;;5.88;90.77;98309.78;5017844;27;103415;-63
2023/04/21 02:42:11;;;;;;;14.57;12.07;;;;;;;6.12;90.18;98318.81;5002121;27;103291;-63
2023/04/21 02:44:41;;;;;;;16.03;14.33;;;;;;;6.12;89.05;98324.06;5010105;27;103856;-62
2023/04/21 02:47:10;;;;;;;14.93;13.40;;;;;;;6.16;88.43;98325.56;5011123;27;102738;-63
2023/04/21 02:49:42;;;;;;;16.13;12.77;;;;;;;5.82;88.04;98325.84;5010354;27;103194;-62
2023/04/21 02:52:12;;;;;;;16.60;13.70;;;;;;;5.84;87.67;98329.22;5003176;27;104323;-63
2023/04/21 02:54:41;;;;;;;14.10;12.20;;;;;;;6.00;88.40;98335.28;5020316;27;103017;-63
2023/04/21 02:57:09;;;;;;;13.87;12.40;;;;;;;5.96;87.45;98333.78;5002583;27;102769;-63
2023/04/21 02:59:39;;;;;;;14.40;12.03;;;;;;;6.06;87.43;98334.94;5005469;27;103853;-63
2023/04/21 03:02:07;;;;;;;17.37;14.03;;;;;;;6.05;86.39;98343.72;5011213;27;104427;-62
2023/04/21 03:04:38;;;;;;;18.53;14.33;;;;;;;5.64;86.26;98340.06;5014352;27;102752;-62
2023/04/21 03:07:12;;;;;;;18.03;15.07;;;;;;;5.34;87.56;98332.16;5005370;27;103687;-63
2023/04/21 03:09:40;;;;;;;37.83;16.40;;;;;;;4.86;90.50;98325.28;5004578;27;103240;-62
2023/04/21 03:12:08;;;;;;;36.10;14.63;;;;;;;5.05;92.01;98331.16;5014275;27;103260;-63
2023/04/21 03:14:36;;;;;;;67.10;17.10;;;;;;;5.16;91.65;98320.97;5013941;27;102677;-62
2023/04/21 03:17:06;;;;;;;146.47;20.67;;;;;;;4.48;93.13;98327.38;5009312;27;102782;-63
2023/04/21 03:19:36;;;;;;;205.67;19.73;;;;;;;4.30;94.42;98325.72;5007823;27;104498;-62
2023/04/21 03:22:05;;;;;;;139.57;17.53;;;;;;;4.19;96.53;98322.81;4987844;27;104322;-62
2023/04/21 03:24:33;;;;;;;148.60;16.70;;;;;;;4.12;97.73;98304.94;5003711;27;102693;-63
2023/04/21 03:27:02;;;;;;;117.23;15.40;;;;;;;4.19;98.35;98298.44;5007690;27;102678;-62
2023/04/21 03:29:30;;;;;;;106.77;14.00;;;;;;;4.32;98.17;98296.88;5002493;27;103449;-63
2023/04/21 03:31:58;;;;;;;42.27;12.23;;;;;;;4.66;97.10;98296.72;4988003;27;106154;-62
2023/04/21 03:34:28;;;;;;;28.87;11.00;;;;;;;4.89;96.70;98306.78;5003280;27;102761;-63
2023/04/21 03:36:58;;;;;;;38.90;12.77;;;;;;;5.05;96.19;98307.59;5004392;27;102739;-63
2023/04/21 03:39:26;;;;;;;140.13;16.53;;;;;;;5.13;94.41;98315.91;5003440;27;103139;-62
2023/04/21 03:41:55;;;;;;;115.87;14.13;;;;;;;5.08;94.43;98317.91;5007723;27;104364;-63
2023/04/21 03:44:25;;;;;;;159.17;15.47;;;;;;;4.95;94.99;98313.44;5009013;27;102759;-62
2023/04/21 03:46:53;;;;;;;176.70;15.23;;;;;;;4.40;96.17;98313.00;5020762;27;103258;-61
2023/04/21 03:49:23;;;;;;;57.53;11.97;;;;;;;4.72;98.64;98319.09;5011705;27;103272;-63
2023/04/21 03:51:53;;;;;;;33.43;9.90;;;;;;;5.06;96.46;98309.31;5003082;27;104328;-62
2023/04/21 03:54:21;;;;;;;16.93;8.10;;;;;;;5.24;95.38;98308.28;5009323;27;102651;-61
2023/04/21 03:56:51;;;;;;;104.57;13.27;;;;;;;5.38;94.82;98311.88;5008275;27;102693;-61
2023/04/21 03:59:19;;;;;;;173.80;17.40;;;;;;;4.87;94.54;98320.88;5008510;27;103307;-61
2023/04/21 04:01:47;;;;;;;74.37;13.80;;;;;;;5.13;95.08;98321.13;5011762;27;104352;-61
2023/04/21 04:04:15;;;;;;;115.33;14.47;;;;;;;5.16;94.80;98325.34;5006310;27;103030;-61
2023/04/21 04:06:44;;;;;;;86.07;13.83;;;;;;;5.12;95.00;98327.28;5006717;27;102658;-61
2023/04/21 04:09:13;;;;;;;97.13;12.00;;;;;;;4.99;95.27;98328.91;5021506;27;103533;-61
2023/04/21 04:11:41;;;;;;;94.77;15.23;;;;;;;5.12;95.11;98324.69;5005764;27;103137;-61
2023/04/21 04:14:10;;;;;;;82.67;14.70;;;;;;;4.95;95.17;98327.38;5003965;27;102541;-62
2023/04/21 04:16:38;;;;;;;102.07;15.80;;;;;;;5.01;95.16;98324.44;5008443;27;103411;-61
2023/04/21 04:19:06;;;;;;;58.03;13.80;;;;;;;4.98;95.70;98321.97;5005237;27;104617;-61
2023/04/21 04:21:34;;;;;;;93.20;14.97;;;;;;;4.90;96.38;98318.94;5006138;27;103753;-62
2023/04/21 04:24:04;;;;;;;36.60;13.53;;;;;;;5.03;97.06;98319.09;5007966;27;102765;-62
2023/04/21 04:26:34;;;;;;;41.83;12.67;;;;;;;5.13;96.77;98320.28;5006677;27;102950;-61
2023/04/21 04:29:02;;;;;;;106.13;15.73;;;;;;;5.02;96.00;98328.75;5010311;27;104498;-62
2023/04/21 04:31:31;;;;;;;15.23;10.73;;;;;;;5.39;96.07;98317.00;5004749;27;104458;-62
2023/04/21 04:33:59;;;;;;;39.10;12.23;;;;;;;5.48;95.41;98331.38;5005889;27;102648;-62
2023/04/21 04:36:28;;;;;;;26.77;12.93;;;;;;;5.71;95.92;98333.50;5001705;27;102863;-62
2023/04/21 04:38:57;;;;;;;24.47;10.77;;;;;;;5.76;94.43;98334.06;5010489;27;104401;-62
2023/04/21 04:41:25;;;;;;;19.30;10.37;;;;;;;5.82;94.05;98325.84;5006705;27;103412;-62
2023/04/21 04:43:58;;;;;;;118.80;15.07;;;;;;;5.22;94.38;98315.34;5003333;27;102705;-62
2023/04/21 04:46:28;;;;;;;32.23;10.97;;;;;;;5.49;95.35;98317.34;5019623;27;103061;-62
2023/04/21 04:48:55;;;;;;;22.07;11.13;;;;;;;5.77;95.08;98320.91;5011505;27;103229;-62
2023/04/21 04:51:24;;;;;;;19.23;12.37;;;;;;;5.92;94.37;98334.06;5008018;27;103632;-63
2023/04/21 04:53:52;;;;;;;118.70;15.27;;;;;;;5.55;94.11;98332.72;5006290;27;102773;-62
2023/04/21 04:56:20;;;;;;;152.87;18.23;;;;;;;5.11;96.46;98329.97;5002984;27;103861;-62
2023/04/21 04:58:48;;;;;;;58.33;13.87;;;;;;;5.42;96.23;98331.75;5004703;27;104466;-62
2023/04/21 05:01:18;;;;;;;72.03;16.17;;;;;;;5.22;97.55;98341.56;5008781;27;103140;-62
2023/04/21 05:03:47;;;;;;;72.87;13.37;;;;;;;5.41;96.90;98344.00;5004659;27;102577;-62
2023/04/21 05:06:19;;;;;;;68.77;15.33;;;;;;;5.46;97.02;98354.19;5009688;27;102799;-62
2023/04/21 05:08:48;;;;;;;82.07;14.87;;;;;;;5.22;95.67;98348.59;5014209;27;103187;-62
2023/04/21 05:11:18;;;;;;;63.33;13.83;;;;;;;5.49;96.60;98348.78;5015171;27;103816;-62
2023/04/21 05:13:46;;;;;;;44.50;12.00;;;;;;;5.53;96.45;98350.31;5006901;27;103183;-62
2023/04/21 05:16:14;;;;;;;29.83;10.47;;;;;;;5.70;95.04;98358.88;5003313;27;102834;-62
2023/04/21 05:18:44;;;;;;;17.60;10.53;;;;;;;5.97;94.78;98363.47;5004285;27;104474;-62
2023/04/21 05:21:12;;;;;;;56.87;16.10;;;;;;;5.84;93.20;98358.06;5003882;27;104684;-62
2023/04/21 05:23:40;;;;;;;24.77;11.73;;;;;;;5.98;94.03;98363.38;5011594;27;102988;-62
2023/04/21 05:26:07;;;;;;;28.57;12.20;;;;;;;5.77;94.05;98364.59;5002171;27;103151;-63
2023/04/21 05:28:36;;;;;;;45.77;12.77;;;;;;;5.57;95.20;98351.81;5004191;27;104302;-63
2023/04/21 05:31:06;;;;;;;30.87;13.77;;;;;;;5.23;96.20;98366.81;5003403;27;103148;-64
2023/04/21 05:33:34;;;;;;;27.50;13.43;;;;;;;5.06;99.13;98361.69;5000898;27;103098;-62
2023/04/21 05:36:07;;;;;;;20.43;13.90;;;;;;;5.17;100.00;98366.31;5008934;27;102742;-62
2023/04/21 05:38:35;;;;;;;20.50;13.73;;;;;;;5.44;99.34;98371.78;5004001;27;104548;-62
2023/04/21 05:41:03;;;;;;;37.60;13.60;;;;;;;5.31;98.25;98376.84;5008543;27;103046;-63
2023/04/21 05:43:33;;;;;;;13.23;11.07;;;;;;;5.84;98.17;98381.66;5002049;27;102656;-62
2023/04/21 05:46:02;;;;;;;31.90;12.37;;;;;;;5.86;96.69;98377.22;5000784;27;102748;-63
2023/04/21 05:48:33;;;;;;;29.63;13.00;;;;;;;6.08;96.30;98382.88;5007182;27;103149;-62
2023/04/21 05:51:10;;;;;;;36.50;13.67;;;;;;;5.50;98.02;98384.53;5003799;27;103220;-63
2023/04/21 05:53:40;;;;;;;27.93;14.63;;;;;;;5.60;99.57;98377.84;5004834;27;102671;-62
2023/04/21 05:56:10;;;;;;;20.00;15.70;;;;;;;5.99;98.15;98375.56;5002207;27;103433;-63
2023/04/21 05:58:38;;;;;;;19.57;14.90;;;;;;;6.33;98.06;98362.13;5008757;27;104204;-63
2023/04/21 06:01:06;;;;;;;23.50;16.80;;;;;;;6.21;96.46;98356.75;5004955;27;104245;-62
2023/04/21 06:03:34;;;;;;;21.50;16.03;;;;;;;6.20;97.17;98357.72;5008550;27;102567;-63
2023/04/21 06:06:05;;;;;;;21.23;16.13;;;;;;;6.29;97.64;98352.75;5000232;27;102621;-62
2023/04/21 06:08:34;;;;;;;17.97;14.50;;;;;;;6.71;97.11;98356.31;5018108;27;103291;-62
2023/04/21 06:11:02;;;;;;;21.40;16.70;;;;;;;6.90;95.98;98352.44;5006094;27;103061;-62
2023/04/21 06:13:30;;;;;;;21.37;16.37;;;;;;;7.12;95.13;98349.31;5003589;27;102622;-63
2023/04/21 06:15:58;;;;;;;27.13;19.13;;;;;;;6.81;94.46;98341.66;5006458;27;102648;-62
2023/04/21 06:18:27;;;;;;;26.50;19.93;;;;;;;6.75;96.92;98342.03;5004057;27;103412;-63
2023/04/21 06:20:55;;;;;;;23.63;17.73;;;;;;;7.31;95.50;98341.06;5005531;27;103736;-62
2023/04/21 06:23:23;;;;;;;26.53;19.90;;;;;;;7.38;93.93;98340.56;5001744;27;102530;-62
2023/04/21 06:26:03;;;;;;;23.77;17.57;;;;;;;7.60;92.04;98329.50;5007687;27;102971;-62
2023/04/21 06:28:35;;;;;;;28.40;19.97;;;;;;;7.79;92.44;98323.84;5000565;27;104312;-62
2023/04/21 06:31:04;;;;;;;25.30;19.53;;;;;;;7.93;91.36;98336.94;5004892;27;103192;-62
2023/04/21 06:33:36;;;;;;;26.37;20.30;;;;;;;7.87;90.04;98347.84;5009943;27;102659;-62
2023/04/21 06:36:04;;;;;;;26.63;20.17;;;;;;;8.12;90.74;98343.47;5007019;27;102633;-63
2023/04/21 06:38:32;;;;;;;25.43;20.17;;;;;;;8.14;90.34;98338.09;5001204;27;103177;-62
2023/04/21 06:41:03;;;;;;;23.07;18.73;;;;;;;8.79;90.63;98343.25;5002143;27;104382;-63
2023/04/21 06:43:31;;;;;;;25.83;19.80;;;;;;;9.00;85.82;98341.75;5001841;27;102805;-62
2023/04/21 06:45:59;;;;;;;25.00;19.47;;;;;;;9.26;87.46;98343.34;5001776;27;102829;-56
2023/04/21 06:48:28;;;;;;;25.63;19.63;;;;;;;9.23;86.93;98348.84;5003198;27;104512;-56
2023/04/21 06:50:57;;;;;;;22.27;17.07;;;;;;;9.28;87.64;98346.72;4998350;27;104290;-56
2023/04/21 06:53:28;;;;;;;23.37;17.53;;;;;;;9.21;86.87;98345.47;5000403;27;102854;-56
2023/04/21 06:55:57;;;;;;;21.57;18.17;;;;;;;9.23;85.95;98336.50;5007480;27;102917;-56
2023/04/21 06:58:26;;;;;;;20.77;16.67;;;;;;;8.99;88.02;98340.06;5003761;27;103457;-56
2023/04/21 07:00:54;;;;;;;24.20;18.33;;;;;;;8.95;87.02;98338.59;5003821;27;103570;-63
2023/04/21 07:03:25;;;;;;;21.77;18.17;;;;;;;9.14;86.82;98336.31;5010156;27;102689;-62
2023/04/21 07:05:55;;;;;;;23.27;19.00;;;;;;;8.50;89.87;98338.25;5002162;27;102649;-62
2023/04/21 07:08:25;;;;;;;21.20;16.97;;;;;;;8.50;88.25;98338.25;4998627;27;103743;-63
2023/04/21 07:10:53;;;;;;;20.90;15.67;;;;;;;8.52;89.71;98340.78;5003725;27;103044;-62
2023/04/21 07:13:21;;;;;;;18.87;15.23;;;;;;;8.54;90.02;98339.72;5005828;27;102705;-62
2023/04/21 07:15:52;;;;;;;19.53;16.67;;;;;;;8.50;90.20;98342.69;5006173;27;102771;-64
2023/04/21 07:18:20;;;;;;;19.80;17.10;;;;;;;8.52;90.82;98335.50;5002692;27;104531;-63
2023/04/21 07:20:48;;;;;;;22.30;17.80;;;;;;;8.69;91.27;98325.50;5000507;27;104336;-63
2023/04/21 07:23:16;;;;;;;20.40;16.33;;;;;;;9.09;89.96;98327.91;5007148;27;102550;-63
2023/04/21 07:25:44;;;;;;;22.60;18.03;;;;;;;8.93;88.92;98320.25;5005615;27;102641;-63
2023/04/21 07:28:13;;;;;;;20.73;16.63;;;;;;;8.89;89.73;98328.50;4996482;27;104478;-63
2023/04/21 07:30:42;;;;;;;19.70;15.73;;;;;;;9.35;89.21;98316.31;5002204;27;104278;-63
2023/04/21 07:33:11;;;;;;;21.17;16.47;;;;;;;9.30;86.80;98319.28;4998183;27;102683;-63
2023/04/21 07:35:39;;;;;;;22.07;17.27;;;;;;;9.32;87.55;98311.25;4997916;27;103089;-63
2023/04/21 07:38:07;;;;;;;20.40;15.23;;;;;;;9.97;86.07;98316.06;5001901;27;104378;-63
2023/04/21 07:40:35;;;;;;;16.80;14.10;;;;;;;10.31;84.40;98312.56;5000105;27;104427;-63
2023/04/21 07:43:05;;;;;;;17.97;14.87;;;;;;;10.28;81.16;98307.50;5003125;27;103015;-63
2023/04/21 07:45:33;;;;;;;18.13;13.67;;;;;;;10.45;83.49;98304.41;5001137;27;102726;-63
2023/04/21 07:48:02;;;;;;;17.50;14.03;;;;;;;10.81;81.96;98301.50;5008194;27;104765;-63
2023/04/21 07:50:34;;;;;;;17.90;13.87;;;;;;;11.28;81.14;98305.66;5001331;27;103337;-63
2023/04/21 07:53:06;;;;;;;15.97;13.03;;;;;;;11.60;78.67;98308.28;5005377;27;103125;-63
2023/04/21 07:55:36;;;;;;;18.97;14.17;;;;;;;11.79;77.86;98310.28;5011857;27;102731;-63
2023/04/21 07:58:08;;;;;;;17.53;15.63;;;;;;;12.11;75.54;98300.47;4981347;27;105574;-63
2023/04/21 08:00:37;;;;;;;17.00;14.73;;;;;;;12.19;76.70;98298.03;5000623;27;103235;-63
2023/04/21 08:03:05;;;;;;;15.50;13.77;;;;;;;12.44;75.51;98291.44;5007592;27;102672;-63
2023/04/21 08:05:35;;;;;;;16.03;14.30;;;;;;;12.59;74.63;98293.63;5001844;27;102726;-63
2023/04/21 08:08:08;;;;;;;16.13;14.30;;;;;;;12.68;76.29;98292.00;5003260;27;104489;-63
2023/04/21 08:10:36;;;;;;;16.97;14.60;;;;;;;13.52;74.62;98291.53;5008913;27;103870;-63
2023/04/21 08:13:05;;;;;;;15.67;13.97;;;;;;;12.74;75.56;98294.13;5010395;27;102699;-63
2023/04/21 08:15:34;;;;;;;15.13;13.57;;;;;;;11.71;75.65;98296.84;5007306;27;102926;-63
2023/04/21 08:18:04;;;;;;;13.97;12.43;;;;;;;12.30;76.22;98292.63;5008309;27;103236;-63
2023/04/21 08:20:32;;;;;;;13.13;11.73;;;;;;;13.70;73.26;98297.78;5010002;27;103273;-63
2023/04/21 08:23:02;;;;;;;14.53;12.27;;;;;;;13.58;72.03;98293.63;5000413;27;102773;-63
2023/04/21 08:25:31;;;;;;;16.03;14.30;;;;;;;13.81;69.92;98296.84;4983903;27;102860;-62
2023/04/21 08:27:59;;;;;;;15.87;14.17;;;;;;;13.01;72.59;98299.63;5009224;27;104351;-63
2023/04/21 08:30:28;;;;;;;14.97;13.57;;;;;;;14.21;71.22;98289.50;5003738;27;103661;-63
2023/04/21 08:32:57;;;;;;;13.17;11.60;;;;;;;14.76;68.97;98285.16;5007549;27;102717;-63
2023/04/21 08:35:25;;;;;;;14.13;12.77;;;;;;;14.35;68.91;98286.41;5007972;27;102774;-63
2023/04/21 08:37:56;;;;;;;13.13;11.80;;;;;;;15.17;65.01;98283.81;5013180;27;103186;-63
2023/04/21 08:40:32;;;;;;;13.97;12.57;;;;;;;13.45;69.93;98284.22;5013419;27;103350;-63
2023/04/21 08:43:01;;;;;;;11.90;10.80;;;;;;;14.66;67.84;98279.03;5012082;27;102763;-62
2023/04/21 08:45:29;;;;;;;12.63;11.43;;;;;;;15.12;69.21;98280.78;5009075;27;102902;-63
2023/04/21 08:47:59;;;;;;;8.40;7.60;;;;;;;16.29;64.17;98271.69;5004395;27;103380;-63
2023/04/21 08:50:29;;;;;;;9.17;8.27;;;;;;;17.17;60.14;98269.50;5009933;27;103473;-63
2023/04/21 08:52:58;;;;;;;7.70;7.00;;;;;;;16.10;61.84;98273.56;5008344;27;102640;-63
2023/04/21 08:55:30;;;;;;;10.27;9.27;;;;;;;15.52;64.29;98273.22;5005281;27;102722;-63
2023/04/21 08:57:58;;;;;;;10.77;9.77;;;;;;;16.60;62.46;98265.75;5008199;27;104571;-63
2023/04/21 09:00:26;;;;;;;11.00;9.90;;;;;;;16.84;61.12;98278.38;5012582;27;103282;-63
2023/04/21 09:02:56;;;;;;;11.23;10.23;;;;;;;16.23;63.25;98270.47;5010989;27;102687;-63
2023/04/21 09:05:32;;;;;;;10.60;9.60;;;;;;;15.07;65.99;98277.72;5004612;27;102801;-63
2023/04/21 09:08:09;;;;;;;10.20;9.10;;;;;;;16.66;61.15;98275.78;5007664;27;105278;-63
2023/04/21 09:10:46;;;;;;;11.10;9.90;;;;;;;16.70;61.91;98282.44;5003195;27;104372;-63
2023/04/21 09:13:16;;;;;;;10.63;9.63;;;;;;;17.58;58.14;98270.44;5015138;27;102601;-63
2023/04/21 09:15:49;;;;;;;9.97;9.00;;;;;;;17.66;58.16;98270.44;5004242;27;102726;-63
2023/04/21 09:18:20;;;;;;;10.30;9.30;;;;;;;17.53;60.40;98272.75;5006579;27;103345;-63
2023/04/21 09:20:51;;;;;;;9.07;8.27;;;;;;;17.53;58.18;98267.41;5009192;27;104382;-63
2023/04/21 09:23:20;;;;;;;9.57;8.67;;;;;;;16.59;61.77;98268.59;5009196;27;102864;-63
2023/04/21 09:25:50;;;;;;;9.87;8.87;;;;;;;17.90;57.64;98256.28;5001833;27;103109;-64
2023/04/21 09:28:18;;;;;;;9.20;8.30;;;;;;;18.28;55.61;98249.38;5008981;27;104423;-63
2023/04/21 09:30:47;;;;;;;10.55;8.68;;;;;;;18.60;57.82;98252.00;5006088;27;103268;-64
2023/04/21 09:33:17;;;;;;;8.00;7.35;;;;;;;18.57;55.60;98249.69;5005255;27;102641;-64
2023/04/21 09:36:02;;;;;;;8.40;7.60;;;;;;;17.66;58.97;98254.41;4984764;27;103927;-63
2023/04/21 09:38:31;;;;;;;9.90;8.90;;;;;;;17.56;55.87;98258.25;5006460;27;103396;-64
2023/04/21 09:41:01;;;;;;;10.00;9.02;;;;;;;15.53;63.83;98252.78;5003753;27;103095;-62
2023/04/21 09:43:30;;;;;;;8.85;8.05;;;;;;;16.77;60.87;98250.66;5006224;27;102680;-62
2023/04/21 09:46:02;;;;;;;8.60;7.80;;;;;;;17.92;58.52;98244.41;5006676;27;102830;-62
2023/04/21 09:48:34;;;;;;;9.60;8.70;;;;;;;17.61;58.74;98246.06;5011287;27;103345;-63
2023/04/21 09:51:05;;;;;;;9.70;8.73;;;;;;;18.31;59.61;98247.19;5005391;27;103396;-64
2023/04/21 09:53:40;;;;;;;7.93;7.13;;;;;;;19.00;55.82;98243.81;5003338;27;103021;-65
2023/04/21 09:56:13;;;;;;;9.85;8.95;;;;;;;16.81;60.12;98255.50;5010917;27;103022;-65
2023/04/21 09:58:47;;;;;;;10.48;9.48;;;;;;;15.92;63.56;98247.94;4986961;27;103600;-64
2023/04/21 10:01:17;;;;;;;9.73;8.70;;;;;;;15.45;66.46;98247.34;4990899;27;104946;-64
2023/04/21 10:03:49;;;;;;;8.95;8.07;;;;;;;14.81;64.42;98248.31;5009132;27;102627;-62
2023/04/21 10:06:19;;;;;;;8.82;7.93;;;;;;;17.04;60.87;98231.72;5005112;27;103137;-65
2023/04/21 10:08:49;;;;;;;9.48;8.00;;;;;;;16.33;61.35;98230.41;5016847;27;103279;-63
2023/04/21 10:11:21;;;;;;;8.93;8.13;;;;;;;16.25;61.83;98229.34;5009331;27;103370;-62
2023/04/21 10:13:50;;;;;;;8.43;7.63;;;;;;;17.47;59.73;98229.81;5007205;27;103543;-63
2023/04/21 10:16:22;;;;;;;7.93;7.22;;;;;;;18.18;56.94;98232.69;5001319;27;102773;-62
2023/04/21 10:18:51;;;;;;;8.95;8.05;;;;;;;17.92;58.28;98228.38;5009736;27;103308;-62
2023/04/21 10:21:23;;;;;;;10.25;9.15;;;;;;;16.70;56.89;98218.44;5010664;27;103175;-62
2023/04/21 10:23:53;;;;;;;6.95;6.25;;;;;;;18.43;58.80;98215.59;5008694;27;102793;-56
2023/04/21 10:26:25;;;;;;;9.30;8.40;;;;;;;19.01;54.81;98199.97;5005860;27;102777;-55
2023/04/21 10:28:56;;;;;;;7.43;6.72;;;;;;;18.72;55.71;98207.00;4999624;27;103120;-56
2023/04/21 10:31:32;;;;;;;8.50;7.70;;;;;;;16.73;57.19;98207.44;4998864;27;103257;-56
2023/04/21 10:34:22;;;;;;;8.07;7.40;;;;;;;17.53;62.24;98205.13;5002777;27;102669;-56
2023/04/21 10:37:19;;;;;;;8.93;8.05;;;;;;;17.82;57.35;98200.97;4987394;27;102627;-56
2023/04/21 10:39:55;;;;;;;9.57;8.68;;;;;;;17.31;59.48;98199.44;5007686;27;103308;-56
2023/04/21 10:42:34;;;;;;;8.20;7.50;;;;;;;17.53;60.50;98192.63;4996835;27;103105;-56
2023/04/21 10:45:12;;;;;;;8.18;7.22;;;;;;;18.40;60.64;98187.34;5017640;27;102672;-56
2023/04/21 10:47:47;;;;;;;8.00;7.30;;;;;;;18.75;55.66;98193.28;5000859;27;103220;-56
2023/04/21 10:50:22;;;;;;;9.40;7.28;;;;;;;18.98;57.59;98191.47;5010216;27;103374;-56
2023/04/21 10:52:58;;;;;;;8.80;8.00;;;;;;;18.93;56.67;98186.66;5004961;27;103562;-57
2023/04/21 10:55:29;;;;;;;8.32;7.53;;;;;;;19.02;54.80;98190.09;4985936;27;102984;-57
2023/04/21 10:58:04;;;;;;;7.38;6.43;;;;;;;19.57;55.61;98180.03;4983820;27;102762;-57
2023/04/21 11:00:37;;;;;;;8.05;7.35;;;;;;;18.52;55.99;98183.34;5004716;27;103497;-56
2023/04/21 11:03:07;;;;;;;8.82;8.02;;;;;;;17.71;62.14;98182.63;5007360;27;103272;-57
2023/04/21 11:05:39;;;;;;;7.90;7.07;;;;;;;18.81;57.92;98176.50;5004646;27;102635;-57
2023/04/21 11:08:13;;;;;;;7.53;6.85;;;;;;;17.34;60.40;98179.59;5005048;27;104236;-57
2023/04/21 11:10:51;;;;;;;7.30;6.70;;;;;;;18.40;56.58;98173.13;5001229;27;103389;-56
2023/04/21 11:13:26;;;;;;;6.70;6.10;;;;;;;18.62;57.08;98176.91;5009107;27;104086;-56
2023/04/21 11:16:05;;;;;;;8.00;7.20;;;;;;;17.89;58.18;98175.25;4998704;27;102979;-56
2023/04/21 11:18:44;;;;;;;7.53;6.82;;;;;;;18.45;56.16;98165.41;5000833;27;102723;-56
2023/04/21 11:21:16;;;;;;;8.93;7.65;;;;;;;17.47;60.15;98171.91;5001042;27;103806;-56
2023/04/21 11:23:52;;;;;;;7.88;6.80;;;;;;;18.08;59.62;98170.56;4999707;27;104450;-56
2023/04/21 11:26:31;;;;;;;8.05;7.25;;;;;;;18.26;56.16;98172.00;4999739;27;103771;-56
2023/04/21 11:29:06;;;;;;;6.28;5.75;;;;;;;18.88;56.34;98162.25;5003006;27;102713;-56